Time;durP1;ratioP1;P1;durP2;ratioP2;P2;SDS_P1;SDS_P2;PMS_P1;PMS_P2;Temp;Humidity;BMP_temperature;BMP_pressure;BME280_temperature;BME280_humidity;BME280_pressure;Samples;Min_cycle;Max_cycle;Signal;HPM_P1;HPM_P2
2022/09/04 00:03:36;;;;;;;2.30;2.10;;;16.10;99.90;;;;;;7356960;32;20164;-59
2022/09/04 00:07:58;;;;;;;4.75;2.40;;;16.20;99.90;;;;;;7354563;32;20767;-59
2022/09/04 00:12:07;;;;;;;2.70;2.03;;;16.10;99.90;;;;;;7352976;32;20131;-59
2022/09/04 00:16:20;;;;;;;3.47;2.20;;;16.10;99.90;;;;;;7351363;32;20645;-59
2022/09/04 00:20:21;;;;;;;3.17;1.98;;;16.00;99.90;;;;;;7355910;32;20130;-59
2022/09/04 00:24:36;;;;;;;3.95;2.10;;;16.00;99.90;;;;;;7348682;32;20172;-59
2022/09/04 00:28:44;;;;;;;3.25;2.60;;;15.90;99.90;;;;;;7349844;32;20238;-59
2022/09/04 00:33:13;;;;;;;4.93;2.40;;;15.80;99.90;;;;;;7351316;32;20193;-60
2022/09/04 00:37:24;;;;;;;4.28;2.45;;;15.80;99.90;;;;;;7353125;32;20100;-60
2022/09/04 00:41:39;;;;;;;3.65;2.50;;;15.80;99.90;;;;;;7357321;32;20104;-59
2022/09/04 00:46:19;;;;;;;6.10;2.55;;;15.70;99.90;;;;;;7354491;32;20175;-60
2022/09/04 00:51:16;;;;;;;4.57;2.47;;;15.70;99.90;;;;;;7359148;32;20103;-59
2022/09/04 00:55:44;;;;;;;2.78;2.08;;;15.60;99.90;;;;;;7331427;32;20205;-59
2022/09/04 00:59:58;;;;;;;4.12;2.45;;;15.60;99.90;;;;;;7358569;32;20106;-60
2022/09/04 01:04:09;;;;;;;2.60;2.40;;;15.40;99.90;;;;;;7355746;32;20199;-59
2022/09/04 01:08:39;;;;;;;3.58;2.40;;;15.40;99.90;;;;;;7359503;32;20236;-60
2022/09/04 01:12:56;;;;;;;2.72;2.25;;;15.30;99.90;;;;;;7357783;32;20114;-59
2022/09/04 01:17:39;;;;;;;7.65;2.50;;;15.30;99.90;;;;;;7358665;32;20356;-59
2022/09/04 01:22:20;;;;;;;3.20;2.53;;;15.20;99.90;;;;;;7334223;32;20308;-59
2022/09/04 01:26:50;;;;;;;3.90;2.67;;;15.20;99.90;;;;;;7360778;32;20117;-59
2022/09/04 01:31:17;;;;;;;3.00;2.33;;;15.10;99.90;;;;;;7360118;32;20136;-59
2022/09/04 01:35:42;;;;;;;4.47;2.62;;;15.00;99.90;;;;;;7355345;32;20201;-59
2022/09/04 01:39:49;;;;;;;3.00;2.60;;;15.00;99.90;;;;;;7356269;32;20761;-59
2022/09/04 01:43:51;;;;;;;;;;;14.90;99.90;;;;;;7352365;32;20715;-59
2022/09/04 01:48:00;;;;;;;2.72;2.50;;;14.90;99.90;;;;;;7360711;32;20101;-59
2022/09/04 01:52:28;;;;;;;4.82;2.30;;;14.90;99.90;;;;;;7361019;32;20291;-59
2022/09/04 01:56:37;;;;;;;;;;;14.80;99.90;;;;;;7354186;32;20222;-59
2022/09/04 02:00:48;;;;;;;3.10;2.40;;;14.80;99.90;;;;;;7356074;32;20105;-59
2022/09/04 02:05:08;;;;;;;3.28;2.40;;;14.90;99.90;;;;;;7361265;32;20711;-59
2022/09/04 02:09:53;;;;;;;3.55;2.75;;;14.80;99.90;;;;;;7353963;32;20103;-59
2022/09/04 02:14:08;;;;;;;3.30;2.50;;;14.80;99.90;;;;;;7354714;32;20104;-59
2022/09/04 02:18:18;;;;;;;2.60;2.35;;;14.90;99.90;;;;;;7355266;32;20516;-59
2022/09/04 02:22:46;;;;;;;3.92;2.42;;;14.90;99.90;;;;;;7356855;32;20103;-58
2022/09/04 02:27:06;;;;;;;2.83;2.47;;;14.90;99.90;;;;;;7354966;32;20179;-59
2022/09/04 02:31:36;;;;;;;2.90;2.58;;;14.90;99.90;;;;;;7353553;32;20677;-59
2022/09/04 02:35:59;;;;;;;4.18;2.40;;;14.90;99.90;;;;;;7350519;32;20160;-60
2022/09/04 02:40:19;;;;;;;3.15;2.35;;;14.80;99.90;;;;;;7348204;32;20251;-59
2022/09/04 02:44:43;;;;;;;2.80;2.50;;;14.90;99.90;;;;;;7350994;32;20107;-58
2022/09/04 02:49:02;;;;;;;3.65;2.40;;;14.80;99.90;;;;;;7358291;32;20152;-59
2022/09/04 02:53:19;;;;;;;5.40;2.62;;;14.90;99.90;;;;;;7357389;32;20179;-59
2022/09/04 02:57:37;;;;;;;4.80;2.78;;;14.80;99.90;;;;;;7355570;32;20249;-59
2022/09/04 03:01:56;;;;;;;2.92;2.58;;;14.80;99.90;;;;;;7351022;32;20496;-59
2022/09/04 03:06:07;;;;;;;2.83;2.30;;;14.80;99.90;;;;;;7356961;32;20243;-59
2022/09/04 03:10:22;;;;;;;5.70;2.55;;;14.80;99.90;;;;;;7355271;32;20492;-59
2022/09/04 03:14:55;;;;;;;3.40;2.90;;;14.80;99.90;;;;;;7349397;32;20108;-59
2022/09/04 03:19:41;;;;;;;4.07;3.10;;;14.90;99.90;;;;;;7355419;32;20099;-60
2022/09/04 03:23:42;;;;;;;4.37;2.80;;;14.90;99.90;;;;;;7284414;32;20126;-66
2022/09/04 03:27:45;;;;;;;7.22;3.00;;;14.90;99.90;;;;;;7351177;32;20119;-59
2022/09/04 03:32:11;;;;;;;4.10;2.78;;;14.90;99.90;;;;;;7351673;32;20582;-59
2022/09/04 03:36:28;;;;;;;3.65;2.65;;;14.80;99.90;;;;;;7358812;32;20159;-59
2022/09/04 03:40:38;;;;;;;3.83;2.78;;;14.80;99.90;;;;;;7358547;32;20102;-59
2022/09/04 03:44:48;;;;;;;4.55;2.90;;;14.70;99.90;;;;;;7357658;32;20198;-59
2022/09/04 03:49:28;;;;;;;5.78;2.78;;;14.80;99.90;;;;;;7352827;32;20300;-59
2022/09/04 03:53:56;;;;;;;4.83;3.33;;;14.80;99.90;;;;;;7349333;32;20142;-58
2022/09/04 03:58:15;;;;;;;3.60;3.30;;;14.80;99.90;;;;;;7345798;32;20229;-59
2022/09/04 04:02:38;;;;;;;3.25;2.95;;;14.80;99.90;;;;;;7350690;32;20091;-58
2022/09/04 04:06:40;;;;;;;5.35;3.40;;;14.80;99.90;;;;;;7354312;32;20158;-58
2022/09/04 04:11:02;;;;;;;4.28;3.50;;;14.80;99.90;;;;;;7361110;32;20563;-59
2022/09/04 04:15:15;;;;;;;4.60;3.30;;;14.80;99.90;;;;;;7359278;32;20538;-59
2022/09/04 04:19:52;;;;;;;3.50;3.00;;;14.80;99.90;;;;;;7367470;32;20186;-58
2022/09/04 04:24:13;;;;;;;4.32;3.70;;;14.80;99.90;;;;;;7357555;32;20175;-59
2022/09/04 04:28:58;;;;;;;3.70;2.80;;;14.70;99.90;;;;;;7356437;32;20226;-59
2022/09/04 04:33:21;;;;;;;3.50;3.20;;;14.70;99.90;;;;;;7362037;32;20683;-59
2022/09/04 04:37:49;;;;;;;3.62;2.95;;;14.60;99.90;;;;;;7357411;32;20103;-59
2022/09/04 04:42:04;;;;;;;6.25;3.00;;;14.50;99.90;;;;;;7367175;32;20215;-59
2022/09/04 04:46:44;;;;;;;5.43;2.95;;;14.50;99.90;;;;;;7360956;32;20643;-59
2022/09/04 04:50:59;;;;;;;3.80;3.17;;;14.50;99.90;;;;;;7357622;32;20412;-59
2022/09/04 04:55:06;;;;;;;5.55;3.15;;;14.40;99.90;;;;;;7357718;32;20143;-59
2022/09/04 04:59:29;;;;;;;4.03;3.10;;;14.50;99.90;;;;;;7362525;32;20254;-59
2022/09/04 05:03:37;;;;;;;4.15;3.28;;;14.50;99.90;;;;;;7354978;32;20103;-59
2022/09/04 05:07:52;;;;;;;3.80;3.37;;;14.50;99.90;;;;;;7359286;32;20135;-59
2022/09/04 05:12:28;;;;;;;9.82;3.10;;;14.50;99.90;;;;;;7353218;32;20571;-59
2022/09/04 05:16:46;;;;;;;4.78;2.87;;;14.40;99.90;;;;;;7350258;32;20186;-59
2022/09/04 05:21:08;;;;;;;3.92;3.33;;;14.40;99.90;;;;;;7352802;32;20323;-59
2022/09/04 05:25:24;;;;;;;7.15;4.40;;;14.50;99.90;;;;;;7353355;32;20168;-59
2022/09/04 05:29:59;;;;;;;5.03;3.53;;;14.60;99.90;;;;;;7358044;32;20189;-59
2022/09/04 05:34:19;;;;;;;3.90;3.55;;;14.70;99.90;;;;;;7333375;32;20186;-61
2022/09/04 05:38:35;;;;;;;6.25;4.05;;;14.90;99.90;;;;;;7358587;32;20115;-68
2022/09/04 05:43:13;;;;;;;4.82;4.20;;;15.00;99.90;;;;;;7355315;32;20249;-69
2022/09/04 05:48:00;;;;;;;6.50;3.97;;;15.10;99.90;;;;;;7351236;32;20153;-69
2022/09/04 05:52:07;;;;;;;6.03;4.15;;;15.30;99.90;;;;;;7352893;32;20247;-68
2022/09/04 05:56:09;;;;;;;;;;;15.40;99.90;;;;;;7356559;32;20243;-69
2022/09/04 06:00:15;;;;;;;5.18;3.70;;;15.50;99.90;;;;;;7348940;32;20617;-69
2022/09/04 06:04:36;;;;;;;4.05;3.60;;;15.70;99.90;;;;;;7350864;32;20119;-56
2022/09/04 06:08:49;;;;;;;5.78;3.35;;;15.80;99.90;;;;;;7357033;32;20331;-55
2022/09/04 06:13:32;;;;;;;4.78;3.90;;;16.00;99.90;;;;;;7355325;32;20288;-55
2022/09/04 06:18:06;;;;;;;4.50;3.60;;;16.10;99.90;;;;;;7333685;32;20103;-55
2022/09/04 06:22:16;;;;;;;5.30;3.28;;;16.20;99.90;;;;;;7353658;32;20240;-56
2022/09/04 06:26:30;;;;;;;4.97;3.55;;;16.30;99.90;;;;;;7359555;32;20667;-56
2022/09/04 06:30:56;;;;;;;4.18;3.45;;;16.50;99.90;;;;;;7355533;32;20631;-56
2022/09/04 06:35:09;;;;;;;4.85;3.60;;;16.50;99.90;;;;;;7349964;32;20216;-56
2022/09/04 06:39:43;;;;;;;5.75;3.47;;;16.60;99.90;;;;;;7357303;32;20577;-56
2022/09/04 06:43:56;;;;;;;3.30;3.00;;;16.70;99.90;;;;;;7347685;32;20104;-56
2022/09/04 06:47:58;;;;;;;3.55;3.10;;;16.80;99.90;;;;;;7353035;32;20328;-69
2022/09/04 06:52:51;;;;;;;5.03;3.30;;;16.90;99.90;;;;;;7353098;32;20194;-69
2022/09/04 06:57:37;;;;;;;3.97;3.53;;;17.00;99.90;;;;;;7334174;32;20179;-69
2022/09/04 07:01:39;;;;;;;4.32;3.20;;;17.20;99.90;;;;;;7326860;32;20850;-68
2022/09/04 07:05:49;;;;;;;4.78;2.92;;;17.30;99.90;;;;;;7352759;32;20195;-57
2022/09/04 07:10:01;;;;;;;6.35;2.95;;;17.50;99.90;;;;;;7349644;32;20099;-56
2022/09/04 07:14:15;;;;;;;2.90;2.60;;;17.50;99.90;;;;;;7351207;32;20528;-57
2022/09/04 07:18:26;;;;;;;3.28;2.50;;;17.60;99.90;;;;;;7350258;32;20096;-57
2022/09/04 07:22:46;;;;;;;4.12;2.85;;;17.70;99.90;;;;;;7357547;32;20852;-56
2022/09/04 07:27:00;;;;;;;3.80;2.65;;;17.80;99.90;;;;;;7347182;32;20115;-56
2022/09/04 07:31:14;;;;;;;3.05;2.33;;;18.10;99.90;;;;;;7350448;32;20819;-57
2022/09/04 07:35:41;;;;;;;7.28;2.87;;;18.10;99.90;;;;;;7354478;32;20126;-57
2022/09/04 07:39:53;;;;;;;3.33;2.12;;;18.30;99.90;;;;;;7351388;32;20096;-56
2022/09/04 07:44:28;;;;;;;3.80;2.33;;;18.40;99.90;;;;;;7350060;32;20099;-57
2022/09/04 07:48:36;;;;;;;4.40;2.40;;;18.50;99.90;;;;;;7339596;32;20125;-56
2022/09/04 07:53:13;;;;;;;5.05;2.17;;;18.80;99.90;;;;;;7355254;32;20346;-57
2022/09/04 07:57:24;;;;;;;4.03;2.17;;;18.90;99.90;;;;;;7348603;32;20946;-56
2022/09/04 08:02:00;;;;;;;3.97;2.30;;;19.00;99.90;;;;;;7355338;32;20125;-57
2022/09/04 08:06:18;;;;;;;4.45;2.35;;;19.30;99.90;;;;;;7348006;32;20402;-57
2022/09/04 08:10:35;;;;;;;3.50;2.10;;;19.30;99.90;;;;;;7353924;32;20186;-58
2022/09/04 08:14:54;;;;;;;4.32;2.50;;;19.40;99.90;;;;;;7347381;32;20100;-57
2022/09/04 08:19:07;;;;;;;4.87;2.30;;;19.90;99.90;;;;;;7349305;32;20199;-57
2022/09/04 08:23:23;;;;;;;3.47;2.33;;;20.00;99.90;;;;;;7350827;32;20185;-57
2022/09/04 08:27:53;;;;;;;4.70;2.30;;;20.10;99.90;;;;;;7346820;32;20107;-57
2022/09/04 08:32:21;;;;;;;2.87;1.70;;;20.50;99.90;;;;;;7349412;32;20137;-57
2022/09/04 08:36:38;;;;;;;4.10;2.33;;;20.50;99.90;;;;;;7356300;32;20119;-64
2022/09/04 08:41:09;;;;;;;3.20;1.90;;;20.70;99.90;;;;;;7352233;32;20203;-64
2022/09/04 08:45:26;;;;;;;2.45;1.58;;;20.80;99.90;;;;;;7363465;32;20130;-63
2022/09/04 08:49:46;;;;;;;3.80;2.20;;;21.10;99.90;;;;;;7353037;32;20180;-63
2022/09/04 08:54:20;;;;;;;2.83;1.65;;;21.50;99.90;;;;;;7353207;32;20119;-56
2022/09/04 08:58:28;;;;;;;3.22;1.77;;;21.60;99.90;;;;;;7354726;32;20584;-55
2022/09/04 09:02:32;;;;;;;3.15;1.50;;;21.80;99.90;;;;;;7358963;32;20286;-55
2022/09/04 09:06:56;;;;;;;3.62;2.17;;;22.00;99.90;;;;;;7358079;32;20608;-55
2022/09/04 09:11:22;;;;;;;4.07;1.87;;;22.00;99.90;;;;;;7351225;32;20186;-64
2022/09/04 09:15:52;;;;;;;4.43;1.85;;;22.30;99.90;;;;;;7360016;32;20567;-65
2022/09/04 09:20:06;;;;;;;4.05;2.20;;;22.80;99.90;;;;;;7356961;32;20808;-64
2022/09/04 09:24:31;;;;;;;4.68;2.28;;;23.30;99.90;;;;;;7361580;32;20123;-66
2022/09/04 09:28:39;;;;;;;6.15;2.08;;;23.70;99.90;;;;;;7350840;32;20237;-65
2022/09/04 09:33:09;;;;;;;3.58;1.73;;;23.90;99.90;;;;;;7347818;32;20123;-65
2022/09/04 09:37:19;;;;;;;3.45;2.03;;;24.50;99.90;;;;;;7358077;32;20269;-66
2022/09/04 09:41:33;;;;;;;3.80;1.62;;;24.90;99.90;;;;;;7359275;32;20095;-67
2022/09/04 09:45:56;;;;;;;3.28;1.65;;;25.80;99.90;;;;;;7356005;32;20107;-65
2022/09/04 09:50:24;;;;;;;4.25;1.73;;;26.40;99.90;;;;;;7348942;32;20214;-70
2022/09/04 09:54:36;;;;;;;5.03;1.40;;;27.30;99.90;;;;;;7351094;32;20198;-67
2022/09/04 09:59:09;;;;;;;4.70;1.65;;;28.00;99.90;;;;;;7351805;32;20134;-67
2022/09/04 10:03:55;;;;;;;3.95;1.37;;;28.10;99.90;;;;;;7359915;32;20222;-67
2022/09/04 10:08:09;;;;;;;2.55;1.60;;;28.60;99.90;;;;;;7356991;32;20095;-67
2022/09/04 10:12:35;;;;;;;3.25;1.73;;;29.10;99.90;;;;;;7355238;32;20784;-66
2022/09/04 10:17:08;;;;;;;2.72;1.45;;;29.10;99.90;;;;;;7355788;32;20160;-65
2022/09/04 10:21:31;;;;;;;5.03;1.42;;;29.80;99.90;;;;;;7350350;32;20193;-66
2022/09/04 10:26:11;;;;;;;2.58;1.40;;;30.00;99.90;;;;;;7356752;32;20207;-66
2022/09/04 10:30:15;;;;;;;5.70;1.85;;;30.10;99.90;;;;;;7357201;32;20112;-66
2022/09/04 10:34:45;;;;;;;4.90;1.35;;;29.70;99.90;;;;;;7350644;32;20142;-64
2022/09/04 10:44:27;;;;;;;4.87;1.37;;;29.40;99.90;;;;;;7353027;32;20153;-64
2022/09/04 10:48:38;;;;;;;3.25;1.40;;;29.00;99.90;;;;;;7337324;32;20171;-64
2022/09/04 10:53:05;;;;;;;2.87;2.10;;;28.80;99.90;;;;;;7349536;32;20179;-63
2022/09/04 10:57:20;;;;;;;;;;;28.10;99.90;;;;;;7354017;32;20206;-66
2022/09/04 11:02:01;;;;;;;4.22;1.52;;;27.90;99.90;;;;;;7346779;32;20030;-58
2022/09/04 11:06:27;;;;;;;4.93;1.50;;;27.50;99.90;;;;;;7357226;32;20260;-59
2022/09/04 11:10:43;;;;;;;4.97;2.08;;;27.40;99.90;;;;;;7355166;32;20216;-58
2022/09/04 11:15:23;;;;;;;4.05;1.73;;;27.40;99.90;;;;;;7352168;32;20749;-59
2022/09/04 11:19:43;;;;;;;16.23;9.30;;;27.20;99.90;;;;;;7348449;32;20163;-57
2022/09/04 11:24:05;;;;;;;74.53;54.20;;;27.80;99.90;;;;;;7347131;32;20252;-68
2022/09/04 11:28:29;;;;;;;82.32;73.90;;;27.70;99.90;;;;;;7351515;32;20174;-66
2022/09/04 11:33:04;;;;;;;6.35;2.00;;;28.00;99.90;;;;;;7351862;32;20107;-67
2022/09/04 11:37:37;;;;;;;4.28;1.73;;;28.00;99.90;;;;;;7343556;32;20594;-66
2022/09/04 11:42:00;;;;;;;3.10;1.90;;;27.50;99.90;;;;;;7350843;32;20103;-66
2022/09/04 11:46:15;;;;;;;2.90;1.77;;;27.30;99.90;;;;;;7353403;32;20217;-66
2022/09/04 11:51:08;;;;;;;3.95;1.50;;;27.30;99.90;;;;;;7356433;32;20572;-66
2022/09/04 11:55:21;;;;;;;4.05;1.65;;;27.10;99.90;;;;;;7354290;32;20229;-57
2022/09/04 11:59:41;;;;;;;2.55;1.33;;;26.60;99.90;;;;;;7350498;32;20429;-56
2022/09/04 12:03:43;;;;;;;4.22;1.58;;;26.60;99.90;;;;;;7347062;32;20710;-56
2022/09/04 12:08:18;;;;;;;3.60;1.40;;;27.20;99.90;;;;;;7352036;32;20150;-56
2022/09/04 12:12:41;;;;;;;3.42;1.60;;;27.40;99.90;;;;;;7349828;32;20206;-58
2022/09/04 12:17:09;;;;;;;3.90;1.25;;;27.90;99.90;;;;;;7352633;32;20261;-57
2022/09/04 12:21:33;;;;;;;3.65;1.50;;;27.60;99.90;;;;;;7355346;32;20400;-57
2022/09/04 12:25:53;;;;;;;6.72;1.55;;;27.20;99.90;;;;;;7347938;32;20108;-57
2022/09/04 12:30:09;;;;;;;2.05;1.30;;;27.20;99.90;;;;;;7354838;32;20258;-58
2022/09/04 12:34:38;;;;;;;3.95;1.23;;;27.50;99.90;;;;;;7364003;32;20754;-58
2022/09/04 12:38:56;;;;;;;1.98;1.40;;;27.80;99.90;;;;;;7355365;32;20214;-58
2022/09/04 12:43:33;;;;;;;2.37;1.30;;;27.70;99.90;;;;;;7355188;32;20123;-58
2022/09/04 12:47:57;;;;;;;3.05;1.40;;;27.60;99.90;;;;;;7352723;32;20813;-57
2022/09/04 12:52:16;;;;;;;3.37;1.12;;;27.70;99.90;;;;;;7354443;32;20657;-67
2022/09/04 12:56:52;;;;;;;2.47;0.90;;;27.80;99.90;;;;;;7360858;32;20115;-67
2022/09/04 13:01:07;;;;;;;1.33;0.93;;;27.60;99.60;;;;;;7356210;32;20256;-66
2022/09/04 13:05:15;;;;;;;2.80;0.95;;;27.10;98.80;;;;;;7364924;32;20761;-66
2022/09/04 13:09:40;;;;;;;3.50;1.08;;;27.10;99.70;;;;;;7359992;32;20182;-65
2022/09/04 13:14:38;;;;;;;1.87;0.98;;;26.90;99.90;;;;;;7369624;32;20111;-66
2022/09/04 13:19:02;;;;;;;5.07;1.12;;;26.80;99.80;;;;;;7351172;32;20175;-67
2022/09/04 13:23:16;;;;;;;5.70;1.35;;;26.80;99.90;;;;;;7365992;32;20111;-66
2022/09/04 13:27:38;;;;;;;3.58;1.00;;;26.80;99.90;;;;;;7364063;32;20115;-67
2022/09/04 13:31:54;;;;;;;1.55;1.05;;;26.80;99.90;;;;;;7359501;32;20469;-67
2022/09/04 13:36:23;;;;;;;;;;;26.80;99.90;;;;;;7358387;32;20518;-66
2022/09/04 13:40:43;;;;;;;2.70;1.30;;;26.70;99.90;;;;;;7358695;32;20002;-66
2022/09/04 13:44:53;;;;;;;2.10;0.90;;;26.80;99.90;;;;;;7357440;32;20211;-66
2022/09/04 13:49:04;;;;;;;1.90;1.00;;;26.80;99.90;;;;;;7348760;32;20364;-66
2022/09/04 13:53:39;;;;;;;2.42;1.20;;;27.10;99.90;;;;;;7351711;32;20116;-70
2022/09/04 13:57:50;;;;;;;3.22;1.20;;;27.40;99.80;;;;;;7352309;32;20358;-65
2022/09/04 14:01:57;;;;;;;3.47;1.25;;;27.50;99.50;;;;;;7353011;32;20170;-71
2022/09/04 14:06:00;;;;;;;2.78;0.90;;;27.70;98.80;;;;;;7359879;32;20107;-70
2022/09/04 14:10:13;;;;;;;1.45;0.80;;;27.80;98.70;;;;;;7352924;32;20111;-72
2022/09/04 14:14:48;;;;;;;3.45;1.10;;;27.90;97.70;;;;;;7352300;32;20126;-71
2022/09/04 14:18:55;;;;;;;2.10;1.20;;;27.80;98.50;;;;;;7321871;32;20215;-64
2022/09/04 14:23:26;;;;;;;5.55;1.10;;;27.80;98.10;;;;;;7351195;32;20213;-67
2022/09/04 14:27:41;;;;;;;2.22;0.90;;;27.80;97.70;;;;;;7355523;32;20615;-65
2022/09/04 14:32:18;;;;;;;2.65;1.10;;;27.70;98.20;;;;;;7351778;32;20103;-63
2022/09/04 14:36:58;;;;;;;2.42;0.82;;;27.60;97.40;;;;;;7352132;32;20566;-63
2022/09/04 14:41:19;;;;;;;1.40;1.00;;;27.40;98.10;;;;;;7291329;32;20296;-66
2022/09/04 14:45:51;;;;;;;2.67;0.98;;;27.30;98.30;;;;;;7349781;32;21016;-66
2022/09/04 14:50:00;;;;;;;1.40;1.00;;;27.50;97.80;;;;;;7351562;32;20166;-66
2022/09/04 14:54:02;;;;;;;1.67;0.90;;;27.60;98.40;;;;;;7358151;32;20258;-66
2022/09/04 14:58:18;;;;;;;1.08;0.80;;;28.00;96.00;;;;;;7354746;32;20179;-68
2022/09/04 15:02:41;;;;;;;1.45;0.80;;;27.80;96.30;;;;;;7352001;32;20133;-67
2022/09/04 15:06:50;;;;;;;33.30;29.80;;;27.70;96.90;;;;;;7353053;32;20130;-68
2022/09/04 15:11:33;;;;;;;2.65;1.10;;;27.60;96.20;;;;;;7345382;32;20186;-63
2022/09/04 15:15:39;;;;;;;3.37;1.20;;;27.40;96.70;;;;;;7347368;32;20362;-74
2022/09/04 15:19:51;;;;;;;8.18;1.20;;;27.10;98.90;;;;;;7354945;32;20210;-57
2022/09/04 15:24:02;;;;;;;4.72;1.20;;;26.90;97.80;;;;;;7350931;32;20232;-58
2022/09/04 15:28:28;;;;;;;1.92;1.05;;;26.90;98.70;;;;;;7353417;32;20114;-58
2022/09/04 15:32:38;;;;;;;4.97;1.30;;;27.00;96.70;;;;;;7348571;32;20210;-56
2022/09/04 15:36:40;;;;;;;4.75;1.30;;;27.10;95.00;;;;;;7347188;32;20546;-57
2022/09/04 15:40:46;;;;;;;1.52;1.20;;;26.90;96.00;;;;;;7355907;32;20110;-58
2022/09/04 15:45:23;;;;;;;3.83;1.37;;;26.70;94.10;;;;;;7347254;32;20175;-58
2022/09/04 15:49:25;;;;;;;5.22;1.30;;;26.90;93.30;;;;;;7351680;32;20191;-57
2022/09/04 15:53:34;;;;;;;2.03;1.37;;;26.70;94.00;;;;;;7352524;32;20111;-58
2022/09/04 15:57:48;;;;;;;6.43;1.33;;;26.60;93.40;;;;;;7357938;32;20253;-68
2022/09/04 16:02:10;;;;;;;2.25;1.45;;;26.60;93.40;;;;;;7351612;32;20170;-67
2022/09/04 16:06:25;;;;;;;3.90;1.48;;;26.40;93.60;;;;;;7350241;32;20278;-69
2022/09/04 16:10:43;;;;;;;3.80;1.30;;;26.50;93.40;;;;;;7363428;32;20673;-69
2022/09/04 16:14:50;;;;;;;3.37;1.50;;;26.30;93.60;;;;;;7355847;32;20246;-68
2022/09/04 16:19:37;;;;;;;4.45;1.35;;;26.00;95.00;;;;;;7354303;32;20198;-67
2022/09/04 16:23:39;;;;;;;6.68;1.90;;;25.90;95.40;;;;;;7346171;32;20183;-66
2022/09/04 16:27:50;;;;;;;4.78;1.65;;;25.80;97.40;;;;;;7342526;32;20127;-67
2022/09/04 16:31:53;;;;;;;2.78;1.20;;;25.80;98.60;;;;;;7350524;32;20220;-67
2022/09/04 16:36:07;;;;;;;3.53;1.30;;;25.80;99.30;;;;;;7351541;32;20141;-66
2022/09/04 16:40:28;;;;;;;3.08;1.30;;;25.70;97.90;;;;;;7354484;32;20182;-66
2022/09/04 16:44:39;;;;;;;3.33;1.30;;;25.70;98.70;;;;;;7352280;32;20222;-67
2022/09/04 16:48:47;;;;;;;2.50;1.70;;;25.60;99.70;;;;;;7351769;32;20328;-66
2022/09/04 16:52:58;;;;;;;3.58;1.65;;;25.60;99.60;;;;;;7353339;32;20195;-67
2022/09/04 16:57:17;;;;;;;3.37;1.25;;;25.60;98.30;;;;;;7354287;32;20119;-56
2022/09/04 17:01:37;;;;;;;2.58;1.37;;;25.50;98.50;;;;;;7351911;32;20224;-63
2022/09/04 17:05:49;;;;;;;6.85;5.45;;;25.40;98.70;;;;;;7358846;32;20115;-63
2022/09/04 17:10:21;;;;;;;4.18;1.55;;;25.40;99.60;;;;;;7354399;32;20128;-64
2022/09/04 17:14:45;;;;;;;25.48;2.62;;;25.30;99.10;;;;;;7359251;32;20126;-64
2022/09/04 17:18:52;;;;;;;2.83;2.05;;;25.30;99.90;;;;;;7355900;32;20246;-66
2022/09/04 17:23:22;;;;;;;2.42;1.52;;;25.10;99.70;;;;;;7351087;32;20166;-66
2022/09/04 17:28:03;;;;;;;3.33;1.55;;;25.10;99.90;;;;;;7349823;32;20103;-68
2022/09/04 17:32:30;;;;;;;3.62;1.40;;;25.10;99.90;;;;;;7355320;32;20129;-71
2022/09/04 17:37:08;;;;;;;3.20;1.30;;;24.90;99.90;;;;;;7347202;32;20250;-64
2022/09/04 17:41:52;;;;;;;3.12;1.20;;;24.70;99.90;;;;;;7350519;32;20249;-58
2022/09/04 17:46:31;;;;;;;4.40;1.37;;;24.60;99.90;;;;;;7328456;32;20206;-60
2022/09/04 17:50:33;;;;;;;3.00;1.40;;;24.40;99.90;;;;;;7348960;32;20248;-59
2022/09/04 17:54:43;;;;;;;16.40;3.92;;;24.20;99.90;;;;;;7346171;32;20409;-58
2022/09/04 17:59:05;;;;;;;4.62;1.80;;;24.00;99.90;;;;;;7352743;32;20122;-57
2022/09/04 18:03:22;;;;;;;5.12;1.40;;;23.70;99.90;;;;;;7351666;32;20207;-57
2022/09/04 18:07:37;;;;;;;3.78;1.40;;;23.40;99.90;;;;;;7361142;32;20178;-64
2022/09/04 18:12:09;;;;;;;7.60;1.60;;;23.10;99.90;;;;;;7368658;32;20463;-64
2022/09/04 18:16:30;;;;;;;3.60;2.05;;;22.90;99.90;;;;;;7364935;32;20742;-64
2022/09/04 18:20:54;;;;;;;6.70;1.60;;;22.60;99.90;;;;;;7354030;32;20114;-62
2022/09/04 18:25:35;;;;;;;9.20;6.22;;;22.30;99.90;;;;;;7364210;32;20122;-68
2022/09/04 18:29:54;;;;;;;15.93;11.65;;;22.00;99.90;;;;;;7354335;32;20171;-74
2022/09/04 18:34:46;;;;;;;9.02;2.08;;;21.70;99.90;;;;;;7352431;32;20185;-68
2022/09/04 18:39:23;;;;;;;4.85;2.05;;;21.40;99.90;;;;;;7344108;32;20099;-62
2022/09/04 18:43:39;;;;;;;5.00;2.10;;;21.20;99.90;;;;;;7355251;32;20471;-61
2022/09/04 18:48:04;;;;;;;5.07;2.60;;;21.00;99.90;;;;;;7350038;32;20182;-61
2022/09/04 18:52:41;;;;;;;8.55;2.50;;;20.80;99.90;;;;;;7352079;32;20194;-62
2022/09/04 18:56:47;;;;;;;6.25;2.60;;;20.50;99.90;;;;;;7359944;32;20122;-62
2022/09/04 19:01:18;;;;;;;8.93;2.85;;;20.30;99.90;;;;;;7356905;32;20121;-61
2022/09/04 19:05:36;;;;;;;6.05;2.50;;;20.20;99.90;;;;;;7332363;32;20224;-61
2022/09/04 19:09:57;;;;;;;6.60;3.30;;;20.00;99.90;;;;;;7354650;32;20106;-60
2022/09/04 19:14:12;;;;;;;5.68;2.67;;;19.80;99.90;;;;;;7348361;32;20166;-61
2022/09/04 19:18:29;;;;;;;6.95;3.10;;;19.60;99.90;;;;;;7348883;32;20306;-63
2022/09/04 19:22:44;;;;;;;7.85;2.92;;;19.50;99.90;;;;;;7351624;32;20103;-61
2022/09/04 19:26:55;;;;;;;6.28;3.08;;;19.30;99.90;;;;;;7348305;32;20283;-61
2022/09/04 19:31:03;;;;;;;6.80;3.22;;;19.20;99.90;;;;;;7352148;32;20119;-61
2022/09/04 19:35:28;;;;;;;5.05;3.00;;;19.00;99.90;;;;;;7351917;32;20141;-61
2022/09/04 19:39:38;;;;;;;4.45;2.70;;;18.90;99.90;;;;;;7348740;32;20488;-62
2022/09/04 19:44:08;;;;;;;8.48;2.87;;;18.90;99.90;;;;;;7354630;32;20134;-60
2022/09/04 19:48:58;;;;;;;6.05;2.97;;;18.70;99.90;;;;;;7352240;32;20156;-59
2022/09/04 19:53:32;;;;;;;6.22;2.62;;;18.60;99.90;;;;;;7350237;32;20110;-60
2022/09/04 19:57:52;;;;;;;6.20;2.83;;;18.60;99.90;;;;;;7351263;32;20088;-61
2022/09/04 20:01:55;;;;;;;5.50;3.00;;;18.40;99.90;;;;;;7349520;32;20251;-60
2022/09/04 20:06:17;;;;;;;5.12;2.83;;;18.30;99.90;;;;;;7352063;32;20530;-61
2022/09/04 20:10:36;;;;;;;6.62;3.05;;;18.30;99.90;;;;;;7349351;32;20553;-61
2022/09/04 20:15:01;;;;;;;5.50;2.60;;;18.20;99.90;;;;;;7349459;32;20283;-61
2022/09/04 20:19:21;;;;;;;6.22;3.15;;;18.10;99.90;;;;;;7342582;32;20679;-61
2022/09/04 20:23:55;;;;;;;3.83;2.83;;;18.00;99.90;;;;;;7354470;32;20757;-59
2022/09/04 20:28:28;;;;;;;6.30;3.08;;;17.90;99.90;;;;;;7343561;32;20261;-60
2022/09/04 20:32:37;;;;;;;5.62;3.10;;;17.90;99.90;;;;;;7347081;32;20163;-59
2022/09/04 20:36:47;;;;;;;3.75;2.80;;;17.80;99.90;;;;;;7342313;32;20250;-59
2022/09/04 20:41:32;;;;;;;6.57;3.03;;;17.70;99.90;;;;;;7343233;32;20478;-60
2022/09/04 20:45:54;;;;;;;4.37;3.10;;;17.60;99.90;;;;;;7336652;32;20129;-59
2022/09/04 20:50:30;;;;;;;6.95;3.10;;;17.60;99.90;;;;;;7344933;32;20499;-59
2022/09/04 20:54:58;;;;;;;4.85;2.60;;;17.60;99.90;;;;;;7351695;32;20114;-61
2022/09/04 20:59:06;;;;;;;5.00;2.87;;;17.50;99.90;;;;;;7355920;32;20137;-60
2022/09/04 21:04:00;;;;;;;8.73;3.05;;;17.40;99.90;;;;;;7349185;32;20266;-61
2022/09/04 21:08:08;;;;;;;3.65;2.90;;;17.40;99.90;;;;;;7311171;32;20275;-59
2022/09/04 21:12:29;;;;;;;4.45;2.78;;;17.30;99.90;;;;;;7355073;32;20846;-60
2022/09/04 21:16:49;;;;;;;4.28;2.83;;;17.20;99.90;;;;;;7358772;32;20137;-60
2022/09/04 21:21:12;;;;;;;5.00;3.05;;;17.20;99.90;;;;;;7343658;32;20104;-60
2022/09/04 21:25:22;;;;;;;6.07;2.92;;;17.10;99.90;;;;;;7353949;32;20603;-60
2022/09/04 21:29:42;;;;;;;4.35;2.85;;;17.10;99.90;;;;;;7351134;32;20307;-60
2022/09/04 21:34:22;;;;;;;3.55;2.87;;;17.10;99.90;;;;;;7351826;32;20764;-60
2022/09/04 21:38:43;;;;;;;6.95;3.30;;;17.00;99.90;;;;;;7358190;32;20497;-60
2022/09/04 21:43:06;;;;;;;4.80;3.25;;;17.00;99.90;;;;;;7357415;32;20588;-60
2022/09/04 21:47:32;;;;;;;4.15;2.90;;;17.00;99.90;;;;;;7350592;32;20178;-58
2022/09/04 21:51:59;;;;;;;7.47;3.00;;;16.90;99.90;;;;;;7353320;32;20636;-58
2022/09/04 21:56:25;;;;;;;5.68;3.17;;;16.90;99.90;;;;;;7354683;32;21115;-58
2022/09/04 22:01:13;;;;;;;4.43;3.00;;;16.90;99.90;;;;;;7350466;32;20146;-58
2022/09/04 22:05:39;;;;;;;6.95;3.40;;;16.80;99.90;;;;;;7358137;32;20232;-59
2022/09/04 22:10:03;;;;;;;2.97;2.65;;;16.80;99.90;;;;;;7357070;32;20643;-58
2022/09/04 22:14:47;;;;;;;4.30;2.45;;;16.70;99.90;;;;;;7356024;32;20110;-58
2022/09/04 22:19:00;;;;;;;6.60;2.90;;;16.80;99.90;;;;;;7358090;32;20175;-58
2022/09/04 22:23:34;;;;;;;3.60;2.80;;;16.70;99.90;;;;;;7351774;32;20131;-58
2022/09/04 22:27:58;;;;;;;5.23;3.00;;;16.70;99.90;;;;;;7363056;32;20182;-58
2022/09/04 22:32:22;;;;;;;3.85;2.72;;;16.60;99.90;;;;;;7351255;32;20205;-58
2022/09/04 22:36:50;;;;;;;4.35;2.83;;;16.70;99.90;;;;;;7353245;32;20130;-58
2022/09/04 22:41:13;;;;;;;3.17;2.33;;;16.60;99.90;;;;;;7351528;32;20203;-58
2022/09/04 22:45:33;;;;;;;8.63;3.50;;;16.60;99.90;;;;;;7350435;32;20561;-58
2022/09/04 22:50:03;;;;;;;8.65;3.37;;;16.60;99.90;;;;;;7350208;32;20278;-59